الصفحة الرئيسية
METAR-TAF:

METAR-TAF

مطار :

إيكالويت, نونافوت, كندا

دائرة عرض: 63-45N, خط طول: 068-33W, ارتفاع: 34 متر

مراقبة الطقس الحالي

تاريخ ووقت الإصدار 46 دقيقة قبل الساعة 05:00UTC
ريح 8 عقدة من الشمال الغربي
درجة الحرارة -12°درجة مئوية
الرطوبة 78%
ضغط 1007 hPa
الرؤية: 24.1 كم
غيوم قليلة على ارتفاع 14000 قدم

METAR: CYFB 180500Z 32008KT 15SM FEW140 M12/M15 A2974 RMK AC2 SLP076

زمن: 01:46 (05:46 UTC)

توقعات

تاريخ ووقت الإصدار 6ساعات و 8 دقيقة قبل الساعة 23:38UTC
التوقعات صالحة من18 الساعة 00 UTC إلى 18 الساعة 24 UTC
ريح 3 عقدةمن اتجاهات متغيرة
الرؤية: 10 كم
غيوم مفككة على ارتفاع 8000 قدم
من 18 الساعة 1800 UTC
ريح 10 عقدة من الشمال/الشمال الغربي
الرؤية: 10 كم
غيوم مفككة على ارتفاع 6000 قدم
ملبد بالغيوم على ارتفاع 8000 قدم
ثلوج خفيفة

TAF: CYFB 172338Z 1800/1824 VRB03KT P6SM BKN080 FM181800 34010KT P6SM -SN BKN060 OVC080 RMK NXT FCST BY 180600Z

أرصاد الطقس والتوقعات من أكثر من 4000 مطار (تقارير الطقس للمطار METAR والتنبؤ بالطقس بالمطارTAF).

المحطات المتاحة هي النقط الصفراء والحمراء على الخريطة.

حرك المؤشر فوق النقطة لمعرفة اسم المحطة.

ثم انقر لمعرفة أرصاد وتوقعات الطقس.

لتغيير الخارطة: اضغط على الأزرار الخضراء مع رمز الصليب الأسود للتكبير. على الزر الأخضر مع شرطة للتصغير، أو على الأسهم الخضراء للخرائط المجاورة.


METAR-TAF: